Time;durP1;ratioP1;P1;durP2;ratioP2;P2;SDS_P1;SDS_P2;PMS_P1;PMS_P2;Temp;Humidity;BMP_temperature;BMP_pressure;BME280_temperature;BME280_humidity;BME280_pressure;Samples;Min_cycle;Max_cycle;Signal;HPM_P1;HPM_P2
2021/12/26 00:00:15;;;;;;;;;;;;;;;2.08;43.21;100971.50;5062663;28;19917;-86
2021/12/26 00:02:41;;;;;;;;;;;;;;;2.95;41.82;100979.31;5081593;28;19916;-85
2021/12/26 00:05:07;;;;;;;;;;;;;;;2.91;42.32;100977.56;5063842;28;20393;-84
2021/12/26 00:07:32;;;;;;;;;;;;;;;2.16;42.94;100974.06;5063475;28;19922;-86
2021/12/26 00:09:58;;;;;;;;;;;;;;;3.38;40.93;100967.09;5082874;28;20332;-86
2021/12/26 00:12:23;;;;;;;;;;;;;;;2.71;41.68;100964.50;5064926;28;19991;-85
2021/12/26 00:14:48;;;;;;;;;;;;;;;2.98;41.80;100970.38;5063775;28;19927;-84
2021/12/26 00:17:13;;;;;;;;;;;;;;;2.77;41.58;100975.09;5064016;28;20009;-85
2021/12/26 00:19:39;;;;;;;;;;;;;;;2.54;42.80;100979.88;5062834;28;19916;-86
2021/12/26 00:22:04;;;;;;;;;;;;;;;2.92;41.90;100978.47;5061468;28;20381;-84
2021/12/26 00:24:29;;;;;;;;;;;;;;;3.07;41.10;100977.38;5061776;28;19920;-84
2021/12/26 00:26:55;;;;;;;;;;;;;;;2.45;43.00;100984.41;5061389;28;19921;-85
2021/12/26 00:29:20;;;;;;;;;;;;;;;3.09;41.56;100976.44;5062134;28;20194;-84
2021/12/26 00:31:46;;;;;;;;;;;;;;;2.08;42.49;100981.25;5079210;28;19923;-85
2021/12/26 00:34:12;;;;;;;;;;;;;;;3.01;41.76;100975.69;5059752;28;19921;-84
2021/12/26 00:36:37;;;;;;;;;;;;;;;2.47;42.45;100979.91;5060062;28;19916;-83
2021/12/26 00:39:03;;;;;;;;;;;;;;;3.05;40.87;100974.72;5059735;28;20309;-82
2021/12/26 00:41:28;;;;;;;;;;;;;;;2.29;42.92;100978.38;5060029;28;19923;-84
2021/12/26 00:43:54;;;;;;;;;;;;;;;2.50;42.10;100970.13;5060504;28;19920;-84
2021/12/26 00:46:20;;;;;;;;;;;;;;;2.66;42.28;100969.91;5060225;28;19917;-83
2021/12/26 00:48:45;;;;;;;;;;;;;;;2.34;42.06;100972.06;5079237;28;19921;-83
2021/12/26 00:51:10;;;;;;;;;;;;;;;2.37;42.40;100970.28;5060219;28;19916;-86
2021/12/26 00:53:35;;;;;;;;;;;;;;;2.31;42.07;100959.69;5078497;28;19917;-84
2021/12/26 00:56:01;;;;;;;;;;;;;;;2.28;42.30;100971.25;5059988;28;19920;-84
2021/12/26 00:58:26;;;;;;;;;;;;;;;2.65;42.29;100969.91;5060287;28;19952;-84
2021/12/26 01:00:52;;;;;;;;;;;;;;;2.42;42.55;100965.75;5060037;28;19916;-83
2021/12/26 01:03:18;;;;;;;;;;;;;;;2.03;42.61;100965.28;5061584;28;19916;-83
2021/12/26 01:05:45;;;;;;;;;;;;;;;2.54;42.56;100963.84;5062385;28;19916;-86
2021/12/26 01:08:13;;;;;;;;;;;;;;;2.28;42.61;100965.91;5061633;28;19917;-85
2021/12/26 01:10:43;;;;;;;;;;;;;;;2.88;41.53;100958.03;5082812;28;19917;-83
2021/12/26 01:13:22;;;;;;;;;;;;;;;2.61;41.57;100963.75;5080664;28;19916;-84
2021/12/26 01:15:48;;;;;;;;;;;;;;;2.41;42.40;100966.66;5062935;28;20305;-85
2021/12/26 01:18:14;;;;;;;;;;;;;;;2.06;42.93;100959.94;5061262;28;20384;-81
2021/12/26 01:20:54;;;;;;;;;;;;;;;2.63;41.90;100961.94;5061341;28;20389;-84
2021/12/26 01:23:21;;;;;;;;;;;;;;;2.69;40.98;100970.75;5061092;28;20031;-84
2021/12/26 01:25:46;;;;;;;;;;;;;;;2.13;43.19;100966.97;5062162;28;20392;-85
2021/12/26 01:28:12;;;;;;;;;;;;;;;2.92;41.31;100974.00;5061412;28;19916;-85
2021/12/26 01:30:39;;;;;;;;;;;;;;;2.24;42.14;100964.19;5061286;28;19916;-83
2021/12/26 01:33:14;;;;;;;;;;;;;;;2.65;42.03;100961.91;5060429;28;19912;-85
2021/12/26 01:35:39;;;;;;;;;;;;;;;2.75;40.78;100959.97;5061607;28;19917;-86
2021/12/26 01:38:06;;;;;;;;;;;;;;;2.09;42.37;100957.22;5061562;28;19916;-83
2021/12/26 01:40:35;;;;;;;;;;;;;;;2.03;42.72;100964.44;5060839;28;19912;-85
2021/12/26 01:43:02;;;;;;;;;;;;;;;2.27;42.00;100957.94;5063041;28;19920;-85
2021/12/26 01:45:28;;;;;;;;;;;;;;;2.37;41.73;100948.91;5064131;28;20011;-86
2021/12/26 01:47:57;;;;;;;;;;;;;;;2.38;41.74;100956.00;5065815;28;19958;-86
2021/12/26 01:50:22;;;;;;;;;;;;;;;2.02;42.25;100954.66;5066327;28;20374;-84
2021/12/26 01:52:47;;;;;;;;;;;;;;;2.59;41.39;100945.97;5065806;28;19923;-84
2021/12/26 01:58:10;;;;;;;;;;;;;;;2.84;41.24;100946.53;5073655;28;19924;-85
2021/12/26 02:00:36;;;;;;;;;;;;;;;2.93;40.56;100940.13;5064463;28;19963;-84
2021/12/26 02:03:01;;;;;;;;;;;;;;;1.79;41.95;100937.09;5082129;28;20007;-85
2021/12/26 02:05:27;;;;;;;;;;;;;;;2.36;41.47;100940.94;5063290;28;19955;-84
2021/12/26 02:07:52;;;;;;;;;;;;;;;2.34;41.92;100935.59;5064606;28;20310;-86
2021/12/26 02:10:17;;;;;;;;;;;;;;;1.83;41.97;100938.84;5064578;28;19916;-86
2021/12/26 02:12:43;;;;;;;;;;;;;;;2.20;41.45;100929.53;5064690;28;19939;-85
2021/12/26 02:15:09;;;;;;;;;;;;;;;2.47;40.81;100934.53;5064027;28;20247;-84
2021/12/26 02:17:35;;;;;;;;;;;;;;;2.20;40.89;100930.41;5082001;28;20195;-85
2021/12/26 02:20:16;;;;;;;;;;;;;;;1.61;42.12;100932.81;5063806;28;20031;-86
2021/12/26 02:22:46;;;;;;;;;;;;;;;2.28;41.91;100927.66;5062954;28;20038;-85
2021/12/26 02:27:31;;;;;;;;;;;;;;;2.32;42.48;100929.38;5081333;28;19921;-85
2021/12/26 02:27:57;;;;;;;;;;;;;;;1.72;42.77;100928.28;5080370;28;19927;-86
2021/12/26 02:30:23;;;;;;;;;;;;;;;2.63;41.55;100934.34;5063652;28;19917;-86
2021/12/26 02:32:50;;;;;;;;;;;;;;;3.29;40.54;100924.44;5081591;28;19916;-85
2021/12/26 02:35:16;;;;;;;;;;;;;;;3.11;40.62;100920.28;5063744;28;19917;-86
2021/12/26 02:37:41;;;;;;;;;;;;;;;2.81;41.27;100922.53;5082111;28;19999;-86
2021/12/26 02:40:07;;;;;;;;;;;;;;;2.12;42.17;100922.50;5064605;28;19940;-85
2021/12/26 02:42:32;;;;;;;;;;;;;;;2.48;41.88;100925.63;5065152;28;19923;-85
2021/12/26 02:44:58;;;;;;;;;;;;;;;2.71;41.67;100911.06;5063754;28;19928;-86
2021/12/26 02:47:30;;;;;;;;;;;;;;;2.95;40.57;100909.81;5081129;28;19912;-86
2021/12/26 02:50:07;;;;;;;;;;;;;;;3.36;40.32;100910.06;5063928;28;20011;-85
2021/12/26 02:52:32;;;;;;;;;;;;;;;2.53;41.93;100916.69;5063763;28;20294;-86
2021/12/26 02:54:59;;;;;;;;;;;;;;;2.99;40.91;100913.34;5063177;28;19920;-84
2021/12/26 02:57:24;;;;;;;;;;;;;;;2.50;41.05;100922.06;5081897;28;19985;-85
2021/12/26 02:59:49;;;;;;;;;;;;;;;2.75;40.71;100915.47;5064705;28;19916;-86
2021/12/26 03:02:15;;;;;;;;;;;;;;;2.60;41.34;100908.56;5083501;28;19920;-83
2021/12/26 03:04:40;;;;;;;;;;;;;;;1.97;42.49;100903.13;5084078;28;19917;-85
2021/12/26 03:07:05;;;;;;;;;;;;;;;3.22;41.01;100893.41;5064933;28;19916;-86
2021/12/26 03:09:33;;;;;;;;;;;;;;;2.50;41.71;100895.34;5066239;28;19939;-85
2021/12/26 03:11:59;;;;;;;;;;;;;;;2.52;42.11;100888.19;5061959;28;19966;-84
2021/12/26 03:14:24;;;;;;;;;;;;;;;2.25;42.09;100880.53;5062354;28;19928;-86
2021/12/26 03:16:50;;;;;;;;;;;;;;;2.38;42.47;100883.03;5062543;28;19920;-86
2021/12/26 03:19:16;;;;;;;;;;;;;;;2.33;42.72;100875.09;5062101;28;20374;-84
2021/12/26 03:21:41;;;;;;;;;;;;;;;2.64;42.30;100866.66;5080220;28;19969;-84
2021/12/26 03:24:07;;;;;;;;;;;;;;;2.58;42.47;100870.31;5061650;28;19921;-85
2021/12/26 03:26:32;;;;;;;;;;;;;;;2.24;42.25;100872.56;5062258;28;19986;-86
2021/12/26 03:28:57;;;;;;;;;;;;;;;2.80;41.40;100868.19;5061697;28;19920;-84
2021/12/26 03:31:22;;;;;;;;;;;;;;;2.77;41.58;100862.91;5061732;28;20366;-85
2021/12/26 03:33:48;;;;;;;;;;;;;;;2.59;41.69;100873.84;5081192;28;19927;-86
2021/12/26 03:36:13;;;;;;;;;;;;;;;2.50;41.70;100872.19;5063541;28;19916;-86
2021/12/26 03:38:38;;;;;;;;;;;;;;;4.21;38.85;100865.66;5062520;28;19924;-88
2021/12/26 03:41:04;;;;;;;;;;;;;;;3.21;39.99;100879.13;5064274;28;19916;-86
2021/12/26 03:43:29;;;;;;;;;;;;;;;2.89;40.64;100872.50;5064513;28;19924;-85
2021/12/26 03:45:54;;;;;;;;;;;;;;;2.81;41.37;100880.66;5064007;28;19927;-87
2021/12/26 03:48:21;;;;;;;;;;;;;;;3.40;39.99;100874.34;5062515;28;19909;-86
2021/12/26 03:50:46;;;;;;;;;;;;;;;2.88;40.96;100878.75;5063668;28;19900;-85
2021/12/26 03:53:12;;;;;;;;;;;;;;;2.52;41.35;100882.84;5063378;28;20285;-84
2021/12/26 03:55:38;;;;;;;;;;;;;;;2.81;40.87;100886.00;5061687;28;19917;-86
2021/12/26 03:58:04;;;;;;;;;;;;;;;2.69;41.01;100880.84;5062883;28;19932;-86
2021/12/26 04:00:29;;;;;;;;;;;;;;;3.62;39.52;100873.97;5063287;28;19927;-85
2021/12/26 04:02:55;;;;;;;;;;;;;;;3.02;41.10;100862.53;5062500;28;19927;-85
2021/12/26 04:05:21;;;;;;;;;;;;;;;2.52;41.19;100877.50;5060763;28;20289;-86
2021/12/26 04:07:46;;;;;;;;;;;;;;;2.54;41.28;100873.94;5063387;28;20407;-85
2021/12/26 04:10:12;;;;;;;;;;;;;;;2.39;41.33;100877.69;5063949;28;19917;-87
2021/12/26 04:12:43;;;;;;;;;;;;;;;1.56;43.32;100871.53;5063231;28;20353;-87
2021/12/26 04:15:10;;;;;;;;;;;;;;;2.04;42.62;100864.78;5062091;28;19964;-86
2021/12/26 04:17:35;;;;;;;;;;;;;;;1.40;44.26;100852.16;5080099;28;19920;-87
2021/12/26 04:20:01;;;;;;;;;;;;;;;2.10;42.61;100865.59;5062564;28;19916;-86
2021/12/26 04:22:26;;;;;;;;;;;;;;;3.01;41.08;100863.44;5079725;28;19931;-84
2021/12/26 04:24:51;;;;;;;;;;;;;;;2.94;40.71;100861.75;5062774;28;19908;-86
2021/12/26 04:27:17;;;;;;;;;;;;;;;2.85;40.85;100865.44;5062241;28;19920;-85
2021/12/26 04:29:42;;;;;;;;;;;;;;;3.47;40.30;100868.00;5079448;28;20038;-88
2021/12/26 04:32:07;;;;;;;;;;;;;;;3.33;40.18;100867.34;5062247;28;19920;-86
2021/12/26 04:34:33;;;;;;;;;;;;;;;2.72;40.70;100864.75;5063121;28;19916;-86
2021/12/26 04:36:58;;;;;;;;;;;;;;;2.58;41.57;100856.06;5064649;28;19917;-85
2021/12/26 04:39:23;;;;;;;;;;;;;;;2.54;41.81;100855.22;5065095;28;20027;-88
2021/12/26 04:41:48;;;;;;;;;;;;;;;2.27;42.54;100849.34;5063169;28;19916;-86
2021/12/26 04:44:14;;;;;;;;;;;;;;;2.10;42.85;100852.25;5062509;28;19967;-86
2021/12/26 04:46:39;;;;;;;;;;;;;;;2.44;42.62;100851.78;5061604;28;19916;-87
2021/12/26 04:49:04;;;;;;;;;;;;;;;3.42;40.84;100843.13;5063846;28;19921;-86
2021/12/26 04:51:30;;;;;;;;;;;;;;;2.23;42.12;100847.63;5081390;28;20282;-86
2021/12/26 04:53:55;;;;;;;;;;;;;;;1.93;42.49;100835.56;5064694;28;19941;-88
2021/12/26 04:56:20;;;;;;;;;;;;;;;2.41;41.82;100848.28;5065337;28;19928;-87
2021/12/26 04:58:46;;;;;;;;;;;;;;;1.99;42.64;100846.16;5064876;28;20352;-84
2021/12/26 05:01:11;;;;;;;;;;;;;;;2.21;42.16;100841.44;5081164;28;20006;-86
2021/12/26 05:03:36;;;;;;;;;;;;;;;2.29;42.37;100849.34;5062101;28;20431;-87
2021/12/26 05:06:02;;;;;;;;;;;;;;;1.82;43.57;100838.38;5061535;28;19917;-85
2021/12/26 05:08:27;;;;;;;;;;;;;;;1.08;44.94;100840.91;5079650;28;19917;-87
2021/12/26 05:10:52;;;;;;;;;;;;;;;1.72;43.86;100836.69;5061881;28;19928;-88
2021/12/26 05:13:17;;;;;;;;;;;;;;;1.69;44.05;100832.31;5061859;28;19916;-85
2021/12/26 05:15:43;;;;;;;;;;;;;;;2.24;43.38;100841.41;5060898;28;19966;-88
2021/12/26 05:18:09;;;;;;;;;;;;;;;1.44;44.26;100830.81;5061969;28;19985;-85
2021/12/26 05:20:34;;;;;;;;;;;;;;;2.39;42.82;100839.44;5080084;28;19955;-87
2021/12/26 05:22:59;;;;;;;;;;;;;;;2.57;42.61;100838.28;5063000;28;20003;-87
2021/12/26 05:25:26;;;;;;;;;;;;;;;2.02;43.19;100851.44;5081244;28;20270;-86
2021/12/26 05:27:52;;;;;;;;;;;;;;;1.78;42.88;100847.28;5063084;28;20362;-87
2021/12/26 05:30:18;;;;;;;;;;;;;;;2.84;41.60;100834.31;5065254;28;19912;-85
2021/12/26 05:32:44;;;;;;;;;;;;;;;2.52;41.96;100834.78;5069975;28;19958;-82
2021/12/26 05:35:10;;;;;;;;;;;;;;;2.95;41.35;100831.47;5067026;28;19912;-85
2021/12/26 05:37:37;;;;;;;;;;;;;;;2.92;41.19;100829.72;5081767;28;20377;-86
2021/12/26 05:40:04;;;;;;;;;;;;;;;2.56;42.95;100831.19;5062839;28;20010;-86
2021/12/26 05:42:30;;;;;;;;;;;;;;;2.62;42.63;100818.59;5061568;28;19939;-86
2021/12/26 05:44:55;;;;;;;;;;;;;;;2.13;42.83;100817.53;5061394;28;19955;-85
2021/12/26 05:47:20;;;;;;;;;;;;;;;2.16;43.02;100821.03;5062264;28;19931;-86
2021/12/26 05:49:45;;;;;;;;;;;;;;;2.01;43.23;100817.69;5061889;28;19927;-87
2021/12/26 05:52:11;;;;;;;;;;;;;;;1.88;43.63;100813.41;5078654;28;20374;-85
2021/12/26 05:54:36;;;;;;;;;;;;;;;1.82;44.13;100814.34;5061228;28;19947;-86
2021/12/26 05:57:02;;;;;;;;;;;;;;;2.29;43.44;100814.63;5061277;28;19928;-84
2021/12/26 05:59:27;;;;;;;;;;;;;;;3.21;41.84;100809.63;5061401;28;19919;-85
2021/12/26 06:01:52;;;;;;;;;;;;;;;2.54;43.14;100806.28;5060724;28;19916;-85
2021/12/26 06:04:18;;;;;;;;;;;;;;;2.28;44.30;100810.19;5061378;28;19931;-86
2021/12/26 06:06:46;;;;;;;;;;;;;;;2.76;42.64;100805.06;5079395;28;20041;-86
2021/12/26 06:09:11;;;;;;;;;;;;;;;2.32;42.92;100803.91;5060328;28;19917;-85
2021/12/26 06:11:37;;;;;;;;;;;;;;;2.33;42.56;100811.03;5078598;28;19923;-87
2021/12/26 06:14:03;;;;;;;;;;;;;;;2.18;43.14;100817.47;5061808;28;19921;-86
2021/12/26 06:16:28;;;;;;;;;;;;;;;1.99;43.75;100806.13;5061248;28;19961;-86
2021/12/26 06:18:53;;;;;;;;;;;;;;;2.24;43.42;100809.38;5062104;28;19913;-84
2021/12/26 06:21:19;;;;;;;;;;;;;;;1.94;44.79;100810.66;5062475;28;19917;-85
2021/12/26 06:23:50;;;;;;;;;;;;;;;2.63;43.23;100816.81;5061122;28;20015;-84
2021/12/26 06:26:16;;;;;;;;;;;;;;;3.25;42.26;100821.16;5078422;28;19924;-86
2021/12/26 06:28:41;;;;;;;;;;;;;;;2.86;42.62;100818.25;5061590;28;20275;-85
2021/12/26 06:31:06;;;;;;;;;;;;;;;2.79;43.03;100810.34;5065720;28;20006;-86
2021/12/26 06:33:31;;;;;;;;;;;;;;;3.21;41.82;100808.75;5065357;28;19970;-85
2021/12/26 06:35:58;;;;;;;;;;;;;;;3.43;41.05;100806.53;5065596;28;19917;-86
2021/12/26 06:38:23;;;;;;;;;;;;;;;2.78;43.00;100810.38;5065694;28;19917;-83
2021/12/26 06:40:48;;;;;;;;;;;;;;;2.72;43.10;100807.75;5065925;28;20405;-84
2021/12/26 06:43:14;;;;;;;;;;;;;;;2.42;43.23;100802.88;5066789;28;19917;-84
2021/12/26 06:45:39;;;;;;;;;;;;;;;2.47;43.91;100803.69;5067657;28;19917;-85
2021/12/26 06:48:06;;;;;;;;;;;;;;;1.63;44.91;100807.47;5069522;28;19920;-85
2021/12/26 06:50:35;;;;;;;;;;;;;;;1.75;44.54;100810.91;5069300;28;20324;-85
2021/12/26 06:53:00;;;;;;;;;;;;;;;2.04;44.21;100808.75;5070883;28;19928;-84
2021/12/26 06:55:26;;;;;;;;;;;;;;;2.24;44.04;100797.81;5068136;28;19917;-87
2021/12/26 06:57:51;;;;;;;;;;;;;;;1.64;45.02;100796.78;5084038;28;19924;-88
2021/12/26 07:00:17;;;;;;;;;;;;;;;1.54;44.29;100795.13;5066117;28;19917;-86
2021/12/26 07:02:42;;;;;;;;;;;;;;;1.47;45.12;100796.13;5082920;28;19916;-85
2021/12/26 07:05:11;;;;;;;;;;;;;;;1.73;43.91;100799.34;5084202;28;19917;-85
2021/12/26 07:07:37;;;;;;;;;;;;;;;2.24;42.63;100795.16;5070453;28;20003;-83
2021/12/26 07:10:02;;;;;;;;;;;;;;;1.82;44.22;100794.81;5086247;28;19938;-86
2021/12/26 07:12:28;;;;;;;;;;;;;;;1.80;44.43;100793.94;5086789;28;19916;-84
2021/12/26 07:14:53;;;;;;;;;;;;;;;1.48;43.87;100800.53;5069215;28;19999;-85
2021/12/26 07:17:18;;;;;;;;;;;;;;;1.74;44.37;100800.25;5067304;28;19964;-85
2021/12/26 07:19:44;;;;;;;;;;;;;;;2.00;43.73;100794.56;5066273;28;20273;-88
2021/12/26 07:22:09;;;;;;;;;;;;;;;1.72;44.68;100786.94;5065367;28;19916;-84
2021/12/26 07:24:34;;;;;;;;;;;;;;;2.00;43.73;100797.25;5065667;28;19928;-88
2021/12/26 07:27:00;;;;;;;;;;;;;;;1.46;44.71;100797.00;5065804;28;20555;-87
2021/12/26 07:29:28;;;;;;;;;;;;;;;1.92;43.97;100799.13;5065382;28;19927;-82
2021/12/26 07:31:54;;;;;;;;;;;;;;;1.88;43.93;100794.72;5065181;28;19919;-84
2021/12/26 07:34:19;;;;;;;;;;;;;;;1.68;44.46;100793.19;5065288;28;19916;-88
2021/12/26 07:36:44;;;;;;;;;;;;;;;1.78;43.87;100799.28;5065182;28;20353;-88
2021/12/26 07:39:10;;;;;;;;;;;;;;;2.04;42.66;100795.41;5066543;28;19920;-85
2021/12/26 07:41:38;;;;;;;;;;;;;;;1.71;44.14;100798.50;5065568;28;19923;-85
2021/12/26 07:44:04;;;;;;;;;;;;;;;1.82;43.46;100800.16;5083956;28;19952;-88
2021/12/26 07:46:29;;;;;;;;;;;;;;;2.12;43.47;100799.72;5082509;28;20274;-86
2021/12/26 07:48:55;;;;;;;;;;;;;;;2.00;44.38;100797.25;5064233;28;19924;-88
2021/12/26 07:51:22;;;;;;;;;;;;;;;2.27;43.59;100808.44;5064801;28;20416;-86
2021/12/26 07:53:49;;;;;;;;;;;;;;;2.60;42.30;100803.53;5086191;28;19917;-86
2021/12/26 07:56:14;;;;;;;;;;;;;;;2.65;42.56;100805.19;5068895;28;19916;-84
2021/12/26 07:58:40;;;;;;;;;;;;;;;1.57;44.56;100795.09;5067468;28;19984;-86
2021/12/26 08:01:06;;;;;;;;;;;;;;;2.00;44.07;100802.56;5066910;28;19920;-85
2021/12/26 08:03:33;;;;;;;;;;;;;;;1.80;44.06;100801.94;5065413;28;20109;-83
2021/12/26 08:05:58;;;;;;;;;;;;;;;1.74;44.39;100801.13;5066530;28;19920;-83
2021/12/26 08:08:24;;;;;;;;;;;;;;;1.34;45.01;100800.69;5069607;28;20326;-82
2021/12/26 08:10:49;;;;;;;;;;;;;;;1.84;44.43;100801.91;5064957;28;19916;-86
2021/12/26 08:13:15;;;;;;;;;;;;;;;2.00;44.84;100794.56;5081665;28;19959;-80
2021/12/26 08:15:41;;;;;;;;;;;;;;;2.36;44.26;100797.63;5064019;28;19921;-88
2021/12/26 08:18:06;;;;;;;;;;;;;;;2.41;43.91;100794.91;5065013;28;19948;-85
2021/12/26 08:20:31;;;;;;;;;;;;;;;2.38;43.95;100798.47;5065192;28;19923;-83
2021/12/26 08:23:00;;;;;;;;;;;;;;;3.23;42.21;100806.91;5064374;28;19969;-84
2021/12/26 08:25:25;;;;;;;;;;;;;;;2.86;42.30;100800.44;5049475;28;19928;-86
2021/12/26 08:27:50;;;;;;;;;;;;;;;2.42;42.98;100792.22;5065862;28;19916;-85
2021/12/26 08:30:15;;;;;;;;;;;;;;;2.83;42.53;100801.34;5067487;28;19917;-84
2021/12/26 08:32:42;;;;;;;;;;;;;;;3.33;42.16;100797.81;5071408;28;19923;-83
2021/12/26 08:35:09;;;;;;;;;;;;;;;2.88;42.91;100797.72;5070069;28;20368;-85
2021/12/26 08:37:37;;;;;;;;;;;;;;;2.58;43.04;100798.22;5066828;28;19923;-83
2021/12/26 08:40:02;;;;;;;;;;;;;;;3.90;41.04;100797.59;5064984;28;19913;-85
2021/12/26 08:42:27;;;;;;;;;;;;;;;3.59;41.78;100804.47;5066991;28;19923;-83
2021/12/26 08:44:53;;;;;;;;;;;;;;;3.07;43.18;100798.31;5067014;28;19938;-86
2021/12/26 08:47:19;;;;;;;;;;;;;;;3.11;42.40;100808.91;5066448;28;19912;-83
2021/12/26 08:49:44;;;;;;;;;;;;;;;2.51;43.57;100804.53;5065006;28;20027;-87
2021/12/26 08:52:10;;;;;;;;;;;;;;;2.94;42.96;100800.28;5078896;28;19912;-84
2021/12/26 08:54:36;;;;;;;;;;;;;;;3.14;42.55;100807.97;5078819;28;19928;-86
2021/12/26 08:57:02;;;;;;;;;;;;;;;3.37;42.34;100810.25;5044002;28;20005;-83
2021/12/26 08:59:30;;;;;;;;;;;;;;;3.61;42.35;100810.66;5061389;28;19912;-85
2021/12/26 09:01:56;;;;;;;;;;;;;;;4.07;40.91;100807.94;5063166;28;19968;-82
2021/12/26 09:04:21;;;;;;;;;;;;;;;3.83;42.17;100813.81;5081762;28;19916;-84
2021/12/26 09:06:47;;;;;;;;;;;;;;;3.84;41.07;100813.78;5079071;28;19939;-84
2021/12/26 09:09:12;;;;;;;;;;;;;;;3.45;42.25;100802.06;5080341;28;19938;-84
2021/12/26 09:11:37;;;;;;;;;;;;;;;4.62;40.34;100802.28;5062510;28;19988;-83
2021/12/26 09:14:02;;;;;;;;;;;;;;;4.39;40.99;100802.78;5060643;28;19982;-84
2021/12/26 09:16:33;;;;;;;;;;;;;;;3.46;41.41;100802.03;5063464;28;19916;-85
2021/12/26 09:18:59;;;;;;;;;;;;;;;3.69;42.06;100806.94;5080030;28;19913;-84
2021/12/26 09:21:24;;;;;;;;;;;;;;;4.00;41.88;100797.38;5061760;28;19951;-85
2021/12/26 09:23:49;;;;;;;;;;;;;;;4.96;40.95;100788.91;5060641;28;19932;-85
2021/12/26 09:26:14;;;;;;;;;;;;;;;3.87;41.43;100794.97;5061831;28;19928;-88
2021/12/26 09:28:39;;;;;;;;;;;;;;;4.10;42.14;100798.09;5060670;28;19917;-86
2021/12/26 09:31:05;;;;;;;;;;;;;;;4.41;41.45;100796.50;5059311;28;19927;-85
2021/12/26 09:33:30;;;;;;;;;;;;;;;3.88;41.93;100796.75;5059339;28;19917;-87
2021/12/26 09:35:56;;;;;;;;;;;;;;;4.46;41.47;100793.69;5079407;28;19916;-85
2021/12/26 09:38:21;;;;;;;;;;;;;;;3.98;42.06;100804.59;5079178;28;19917;-82
2021/12/26 09:40:46;;;;;;;;;;;;;;;3.23;43.54;100804.25;5078916;28;19923;-86
2021/12/26 09:43:13;;;;;;;;;;;;;;;3.26;43.92;100801.50;5061410;28;21642;-86
2021/12/26 09:45:39;;;;;;;;;;;;;;;3.79;43.13;100804.97;5060078;28;19978;-90
2021/12/26 09:48:04;;;;;;;;;;;;;;;4.60;41.60;100783.56;5059397;28;20010;-88
2021/12/26 09:50:30;;;;;;;;;;;;;;;4.34;42.21;100794.00;5060577;28;19924;-87
2021/12/26 09:52:55;;;;;;;;;;;;;;;3.67;43.69;100790.03;5061407;28;19920;-86
2021/12/26 09:55:21;;;;;;;;;;;;;;;4.08;43.00;100782.06;5060917;28;20377;-85
2021/12/26 09:57:46;;;;;;;;;;;;;;;4.68;42.55;100775.31;5079876;28;19921;-89
2021/12/26 10:00:21;;;;;;;;;;;;;;;3.75;44.33;100768.47;5062575;28;19928;-87
2021/12/26 10:02:46;;;;;;;;;;;;;;;4.60;43.22;100759.44;5061617;28;20388;-88
2021/12/26 10:05:12;;;;;;;;;;;;;;;3.86;43.67;100768.25;5065906;28;19952;-85
2021/12/26 10:07:37;;;;;;;;;;;;;;;4.63;42.85;100755.78;5084008;28;19912;-87
2021/12/26 10:10:07;;;;;;;;;;;;;;;4.35;42.98;100752.88;5084638;28;19951;-87
2021/12/26 10:12:40;;;;;;;;;;;;;;;4.78;43.13;100747.34;5085132;28;19924;-88
2021/12/26 10:15:06;;;;;;;;;;;;;;;5.26;41.67;100748.78;5066683;28;19924;-83
2021/12/26 10:17:31;;;;;;;;;;;;;;;4.85;42.54;100753.47;5064631;28;20327;-89
2021/12/26 10:20:08;;;;;;;;;;;;;;;4.29;43.32;100747.66;5065920;28;19917;-88
2021/12/26 10:22:34;;;;;;;;;;;;;;;5.20;41.80;100738.22;5065151;28;19976;-88
2021/12/26 10:24:59;;;;;;;;;;;;;;;5.01;42.57;100735.16;5066600;28;20014;-89
2021/12/26 10:27:30;;;;;;;;;;;;;;;5.18;42.20;100740.09;5065809;28;20283;-86
2021/12/26 10:29:56;;;;;;;;;;;;;;;5.04;42.48;100734.19;5082917;28;19966;-88
2021/12/26 10:32:22;;;;;;;;;;;;;;;5.22;43.14;100731.03;5065959;28;19920;-84
2021/12/26 10:34:59;;;;;;;;;;;;;;;5.57;42.27;100731.84;5067887;28;19974;-85
2021/12/26 10:37:24;;;;;;;;;;;;;;;5.75;41.22;100719.72;5068846;28;19917;-83
2021/12/26 10:39:54;;;;;;;;;;;;;;;5.24;42.49;100721.16;5071087;28;19931;-88
2021/12/26 10:42:40;;;;;;;;;;;;;;;4.81;44.49;100714.25;5071318;28;19916;-83
2021/12/26 10:45:11;;;;;;;;;;;;;;;5.44;43.49;100717.03;5084925;28;19921;-88
2021/12/26 10:47:49;;;;;;;;;;;;;;;4.97;44.41;100707.56;5064370;28;20007;-87
2021/12/26 10:50:16;;;;;;;;;;;;;;;5.46;44.37;100691.91;5064692;28;19922;-88
2021/12/26 10:52:48;;;;;;;;;;;;;;;5.03;45.11;100700.25;5066900;28;19927;-88
2021/12/26 10:55:15;;;;;;;;;;;;;;;4.94;44.41;100704.97;5066475;28;20320;-88
2021/12/26 10:57:48;;;;;;;;;;;;;;;4.69;44.91;100703.84;5084804;28;19939;-87
2021/12/26 11:00:21;;;;;;;;;;;;;;;6.39;42.75;100710.59;5065165;28;20366;-86
2021/12/26 11:02:47;;;;;;;;;;;;;;;5.56;44.36;100705.94;5067071;28;19921;-85
2021/12/26 11:05:15;;;;;;;;;;;;;;;5.79;44.55;100696.31;5086132;28;19923;-85
2021/12/26 11:07:45;;;;;;;;;;;;;;;5.82;43.39;100693.53;5066891;28;19958;-85
2021/12/26 11:10:19;;;;;;;;;;;;;;;5.63;43.64;100695.88;5086126;28;20366;-84
2021/12/26 11:12:49;;;;;;;;;;;;;;;5.98;43.06;100699.38;5068679;28;19920;-85
2021/12/26 11:15:15;;;;;;;;;;;;;;;6.00;43.09;100695.69;5065722;28;19965;-87
2021/12/26 11:17:44;;;;;;;;;;;;;;;6.58;41.97;100702.78;5066631;28;20011;-87
2021/12/26 11:20:16;;;;;;;;;;;;;;;6.92;41.49;100698.97;5064927;28;19959;-86
2021/12/26 11:22:42;;;;;;;;;;;;;;;5.02;44.88;100695.84;5064637;28;19923;-88
2021/12/26 11:25:07;;;;;;;;;;;;;;;6.26;43.23;100693.97;5066014;28;20314;-90
2021/12/26 11:27:33;;;;;;;;;;;;;;;5.44;43.57;100698.25;5066527;28;19921;-89
2021/12/26 11:29:58;;;;;;;;;;;;;;;5.01;44.12;100683.34;5065362;28;20397;-89
2021/12/26 11:32:24;;;;;;;;;;;;;;;6.00;43.77;100687.63;5063600;28;19994;-84
2021/12/26 11:34:50;;;;;;;;;;;;;;;5.97;42.24;100673.44;5064801;28;20373;-88
2021/12/26 11:37:16;;;;;;;;;;;;;;;5.96;44.36;100671.63;5071038;28;20000;-86
2021/12/26 11:39:42;;;;;;;;;;;;;;;6.07;43.61;100679.38;5070247;28;19916;-84
2021/12/26 11:42:16;;;;;;;;;;;;;;;5.89;44.16;100668.28;5089191;28;19948;-84
2021/12/26 11:44:42;;;;;;;;;;;;;;;6.23;42.95;100675.28;5070356;28;19962;-86
2021/12/26 11:47:07;;;;;;;;;;;;;;;6.01;43.05;100678.66;5064658;28;19916;-86
2021/12/26 11:50:00;;;;;;;;;;;;;;;6.19;44.11;100677.19;5062715;28;19916;-85
2021/12/26 11:52:35;;;;;;;;;;;;;;;7.38;40.80;100675.81;5061644;28;19920;-88
2021/12/26 11:55:13;;;;;;;;;;;;;;;6.68;42.97;100676.50;5045993;28;19925;-87
2021/12/26 11:57:41;;;;;;;;;;;;;;;7.07;41.81;100670.66;5045125;28;20003;-88
2021/12/26 12:00:12;;;;;;;;;;;;;;;5.75;44.62;100675.84;5046618;28;19907;-89
2021/12/26 12:02:42;;;;;;;;;;;;;;;6.47;43.12;100667.34;5044892;28;19924;-88
2021/12/26 12:05:10;;;;;;;;;;;;;;;7.23;42.74;100661.09;5048455;28;19979;-87
2021/12/26 12:07:53;;;;;;;;;;;;;;;7.43;41.63;100656.78;5044752;28;19912;-89
2021/12/26 12:10:37;;;;;;;;;;;;;;;7.03;43.33;100659.09;5046481;28;20390;-88
2021/12/26 12:13:03;;;;;;;;;;;;;;;7.13;43.50;100653.41;5044347;28;19935;-89
2021/12/26 12:15:40;;;;;;;;;;;;;;;6.74;43.66;100655.63;5045480;28;19921;-88
2021/12/26 12:18:09;;;;;;;;;;;;;;;6.71;44.01;100661.13;5046173;28;19925;-89
2021/12/26 12:20:35;;;;;;;;;;;;;;;7.50;42.30;100646.66;5044209;28;19917;-89
2021/12/26 12:23:01;;;;;;;;;;;;;;;7.64;41.48;100644.31;5045220;28;19927;-88
2021/12/26 12:25:35;;;;;;;;;;;;;;;6.57;44.17;100652.69;5042120;28;20295;-88
2021/12/26 12:28:04;;;;;;;;;;;;;;;7.35;42.56;100640.03;5041392;28;20290;-88
2021/12/26 12:30:32;;;;;;;;;;;;;;;8.05;41.51;100632.84;5041876;28;19939;-90
2021/12/26 12:33:18;;;;;;;;;;;;;;;7.67;41.91;100638.81;5041839;28;19917;-90
2021/12/26 12:35:51;;;;;;;;;;;;;;;6.59;44.54;100637.38;5037230;28;19920;-88
2021/12/26 12:38:43;;;;;;;;;;;;;;;7.47;42.38;100628.78;5039194;28;19923;-88
2021/12/26 12:41:29;;;;;;;;;;;;;;;7.28;43.23;100624.13;5035704;28;20343;-87
2021/12/26 12:43:55;;;;;;;;;;;;;;;7.03;44.29;100624.13;5043301;28;19917;-85
2021/12/26 12:46:21;;;;;;;;;;;;;;;6.88;44.05;100628.28;5058641;28;20007;-93
2021/12/26 12:49:07;;;;;;;;;;;;;;;8.01;42.49;100613.22;5042351;28;19917;-88